createdAt,value
2022-12-22T00:00:53.369Z,1.89
2022-12-22T00:02:13.388Z,1.85
2022-12-22T00:03:33.979Z,1.92
2022-12-22T00:04:54.185Z,1.92
2022-12-22T00:06:14.088Z,1.80
2022-12-22T00:07:34.302Z,1.86
2022-12-22T00:08:54.411Z,1.93
2022-12-22T00:10:14.327Z,1.97
2022-12-22T00:11:34.203Z,1.99
2022-12-22T00:12:54.496Z,1.93
2022-12-22T00:14:14.531Z,1.97
2022-12-22T00:15:34.993Z,2.07
2022-12-22T00:16:55.726Z,2.16
2022-12-22T00:18:15.656Z,2.10
2022-12-22T00:19:35.900Z,2.03
2022-12-22T00:20:55.707Z,1.99
2022-12-22T00:22:17.017Z,1.85
2022-12-22T00:23:37.092Z,1.90
2022-12-22T00:24:57.226Z,1.79
2022-12-22T00:26:17.606Z,1.82
2022-12-22T00:27:45.852Z,1.85
2022-12-22T00:29:06.321Z,1.85
2022-12-22T00:30:31.357Z,1.92
2022-12-22T00:31:51.495Z,1.93
2022-12-22T00:33:11.510Z,1.96
2022-12-22T00:34:35.648Z,2.00
2022-12-22T00:35:55.637Z,1.89
2022-12-22T00:37:15.423Z,1.87
2022-12-22T00:38:37.689Z,1.97
2022-12-22T00:39:57.843Z,1.96
2022-12-22T00:41:18.281Z,1.90
2022-12-22T00:42:38.816Z,1.89
2022-12-22T00:43:58.723Z,1.96
2022-12-22T00:45:18.636Z,2.02
2022-12-22T00:46:38.528Z,2.06
2022-12-22T00:47:58.649Z,2.06
2022-12-22T00:49:18.805Z,2.06
2022-12-22T00:50:38.951Z,2.09
2022-12-22T00:51:59.021Z,2.18
2022-12-22T00:53:19.154Z,2.09
2022-12-22T00:54:39.271Z,2.11
2022-12-22T00:55:59.485Z,2.07
2022-12-22T00:57:19.375Z,2.05
2022-12-22T00:58:39.482Z,2.06
2022-12-22T00:59:59.387Z,2.00
2022-12-22T01:01:19.341Z,2.05
2022-12-22T01:02:39.450Z,2.02
2022-12-22T01:03:59.724Z,2.03
2022-12-22T01:05:20.088Z,2.05
2022-12-22T01:06:48.215Z,2.14
2022-12-22T01:08:08.227Z,2.11
2022-12-22T01:09:28.451Z,2.13
2022-12-22T01:10:48.389Z,2.17
2022-12-22T01:12:08.460Z,2.11
2022-12-22T01:13:32.606Z,1.96
2022-12-22T01:14:52.604Z,1.90
2022-12-22T01:16:12.653Z,1.95
2022-12-22T01:17:32.737Z,2.00
2022-12-22T01:18:52.847Z,1.92
2022-12-22T01:20:12.994Z,1.93
2022-12-22T01:21:33.619Z,1.85
2022-12-22T01:22:54.702Z,1.93
2022-12-22T01:24:14.823Z,1.96
2022-12-22T01:25:36.792Z,2.00
2022-12-22T01:26:56.839Z,2.03
2022-12-22T01:28:16.541Z,1.93
2022-12-22T01:29:36.414Z,1.92
2022-12-22T01:30:56.615Z,1.90
2022-12-22T01:32:17.149Z,1.97
2022-12-22T01:33:37.014Z,2.02
2022-12-22T01:34:58.257Z,1.97
2022-12-22T01:36:18.225Z,1.97
2022-12-22T01:37:38.014Z,2.05
2022-12-22T01:38:57.900Z,2.10
2022-12-22T01:40:18.064Z,2.09
2022-12-22T01:41:39.141Z,2.03
2022-12-22T01:42:59.164Z,2.09
2022-12-22T01:44:19.193Z,1.97
2022-12-22T01:45:43.337Z,2.03
2022-12-22T01:47:04.808Z,2.11
2022-12-22T01:48:37.444Z,2.02
2022-12-22T01:50:01.523Z,1.95
2022-12-22T01:51:23.581Z,1.95
2022-12-22T01:52:51.307Z,1.96
2022-12-22T01:54:11.304Z,2.00
2022-12-22T01:55:32.297Z,2.05
2022-12-22T01:56:52.922Z,2.05
2022-12-22T01:58:12.768Z,2.14
2022-12-22T01:59:32.989Z,2.06
2022-12-22T02:00:53.003Z,2.03
2022-12-22T02:02:13.180Z,2.02
2022-12-22T02:03:35.504Z,2.05
2022-12-22T02:04:58.204Z,2.09
2022-12-22T02:06:39.889Z,2.05
2022-12-22T02:08:32.893Z,2.16
2022-12-22T02:10:11.388Z,2.20
2022-12-22T02:11:43.683Z,2.26
2022-12-22T02:13:18.965Z,2.28
2022-12-22T02:14:45.846Z,2.21
2022-12-22T02:16:11.792Z,2.20
2022-12-22T02:17:47.261Z,2.27
2022-12-22T02:19:14.711Z,2.33
2022-12-22T02:21:22.778Z,2.28
2022-12-22T02:23:12.651Z,2.34
2022-12-22T02:24:51.393Z,2.40
2022-12-22T02:26:28.243Z,2.40
2022-12-22T02:27:48.559Z,2.26
2022-12-22T02:29:08.784Z,2.40
2022-12-22T02:30:29.331Z,2.40
2022-12-22T02:31:56.206Z,2.37
2022-12-22T02:33:16.177Z,2.34
2022-12-22T02:34:36.237Z,2.40
2022-12-22T02:36:22.462Z,2.37
2022-12-22T02:38:01.144Z,2.30
2022-12-22T02:39:58.430Z,2.30
2022-12-22T02:41:23.521Z,2.30
2022-12-22T02:42:52.670Z,2.21
2022-12-22T02:44:31.791Z,2.33
2022-12-22T02:45:54.874Z,2.27
2022-12-22T02:47:46.240Z,2.23
2022-12-22T02:49:12.126Z,2.27
2022-12-22T02:50:38.785Z,2.23
2022-12-22T02:52:03.058Z,2.20
2022-12-22T02:53:23.350Z,2.28
2022-12-22T02:54:43.471Z,2.21
2022-12-22T02:56:03.511Z,2.26
2022-12-22T02:57:26.727Z,2.27
2022-12-22T02:58:46.904Z,2.24
2022-12-22T03:00:07.032Z,2.23
2022-12-22T03:01:27.004Z,2.30
2022-12-22T03:02:46.869Z,2.40
2022-12-22T03:04:07.233Z,2.41
2022-12-22T03:05:26.935Z,2.47
2022-12-22T03:06:47.610Z,2.45
2022-12-22T03:08:08.704Z,2.45
2022-12-22T03:09:29.074Z,2.44
2022-12-22T03:10:49.312Z,2.48
2022-12-22T03:12:09.411Z,2.42
2022-12-22T03:13:29.329Z,2.57
2022-12-22T03:14:49.231Z,2.54
2022-12-22T03:16:10.497Z,2.47
2022-12-22T03:17:30.444Z,2.51
2022-12-22T03:18:50.721Z,2.50
2022-12-22T03:20:10.800Z,2.47
2022-12-22T03:21:31.355Z,2.45
2022-12-22T03:22:51.157Z,2.40
2022-12-22T03:24:11.057Z,2.34
2022-12-22T03:25:30.928Z,2.40
2022-12-22T03:26:33.680Z,2.45
2022-12-22T03:27:35.314Z,2.45
2022-12-22T03:28:36.925Z,2.38
2022-12-22T03:29:38.509Z,2.37
2022-12-22T03:30:40.137Z,2.33
2022-12-22T03:31:41.831Z,2.30
2022-12-22T03:32:43.466Z,2.33
2022-12-22T03:33:45.090Z,2.26
2022-12-22T03:34:46.700Z,2.21
2022-12-22T03:35:48.285Z,2.18
2022-12-22T03:36:49.954Z,2.16
2022-12-22T03:37:51.546Z,2.14
2022-12-22T03:38:53.136Z,2.16
2022-12-22T03:39:54.777Z,2.14
2022-12-22T03:40:56.465Z,2.18
2022-12-22T03:42:16.632Z,2.18
2022-12-22T03:43:36.847Z,2.24
2022-12-22T03:44:56.605Z,2.28
2022-12-22T03:46:16.724Z,2.31
2022-12-22T03:47:18.497Z,2.30
2022-12-22T03:48:20.160Z,2.28
2022-12-22T03:49:23.030Z,2.33
2022-12-22T03:50:24.667Z,2.34
2022-12-22T03:51:26.254Z,2.38
2022-12-22T03:52:27.926Z,2.33
2022-12-22T03:53:29.635Z,2.30
2022-12-22T03:54:31.226Z,2.24
2022-12-22T03:55:32.803Z,2.21
2022-12-22T03:56:34.443Z,2.20
2022-12-22T03:57:36.419Z,2.23
2022-12-22T03:58:38.010Z,2.20
2022-12-22T03:59:39.603Z,2.23
2022-12-22T04:00:41.227Z,2.24
2022-12-22T04:01:44.732Z,2.24
2022-12-22T04:02:46.631Z,2.18
2022-12-22T04:03:49.097Z,2.23
2022-12-22T04:04:50.695Z,2.20
2022-12-22T04:05:52.375Z,2.24
2022-12-22T04:06:54.125Z,2.20
2022-12-22T04:07:55.807Z,2.21
2022-12-22T04:08:57.517Z,2.16
2022-12-22T04:10:17.562Z,2.16
2022-12-22T04:11:37.620Z,2.18
2022-12-22T04:12:57.201Z,2.14
2022-12-22T04:13:59.067Z,2.20
2022-12-22T04:15:00.684Z,2.26
2022-12-22T04:16:02.307Z,2.26
2022-12-22T04:17:04.597Z,2.31
2022-12-22T04:18:06.180Z,2.34
2022-12-22T04:19:08.775Z,2.40
2022-12-22T04:20:10.642Z,2.38
2022-12-22T04:21:12.285Z,2.33
2022-12-22T04:22:14.001Z,2.24
2022-12-22T04:23:15.598Z,2.26
2022-12-22T04:24:17.269Z,2.17
2022-12-22T04:25:18.927Z,2.14
2022-12-22T04:26:22.548Z,2.18
2022-12-22T04:27:24.157Z,2.20
2022-12-22T04:28:25.781Z,2.16
2022-12-22T04:29:27.460Z,2.17
2022-12-22T04:30:29.077Z,2.21
2022-12-22T04:31:30.719Z,2.27
2022-12-22T04:32:32.405Z,2.33
2022-12-22T04:33:33.996Z,2.30
2022-12-22T04:34:35.599Z,2.28
2022-12-22T04:35:37.195Z,2.33
2022-12-22T04:36:38.811Z,2.34
2022-12-22T04:37:40.492Z,2.38
2022-12-22T04:38:42.237Z,2.40
2022-12-22T04:39:43.900Z,2.36
2022-12-22T04:40:45.504Z,2.24
2022-12-22T04:41:47.176Z,2.26
2022-12-22T04:42:48.949Z,2.26
2022-12-22T04:43:50.669Z,2.26
2022-12-22T04:44:52.338Z,2.31
2022-12-22T04:45:54.524Z,2.28
2022-12-22T04:46:56.204Z,2.27
2022-12-22T04:47:57.893Z,2.27
2022-12-22T04:49:00.475Z,2.33
2022-12-22T04:50:02.417Z,2.37
2022-12-22T04:51:04.379Z,2.36
2022-12-22T04:52:05.961Z,2.37
2022-12-22T04:53:07.567Z,2.27
2022-12-22T04:54:09.177Z,2.18
2022-12-22T04:55:10.857Z,2.11
2022-12-22T04:56:12.527Z,2.13
2022-12-22T04:57:14.132Z,2.11
2022-12-22T04:58:15.836Z,2.03
2022-12-22T04:59:17.420Z,2.00
2022-12-22T05:00:19.652Z,1.96
2022-12-22T05:01:21.557Z,1.95
2022-12-22T05:02:23.357Z,1.96
2022-12-22T05:03:25.194Z,1.96
2022-12-22T05:04:26.805Z,1.96
2022-12-22T05:05:28.410Z,1.95
2022-12-22T05:06:30.011Z,2.03
2022-12-22T05:07:31.643Z,2.05
2022-12-22T05:08:33.471Z,1.97
2022-12-22T05:09:35.078Z,1.93
2022-12-22T05:10:36.662Z,2.06
2022-12-22T05:11:38.541Z,2.17
2022-12-22T05:12:55.346Z,2.24
2022-12-22T05:14:00.819Z,2.27
2022-12-22T05:15:05.612Z,2.28
2022-12-22T05:16:15.252Z,2.31
2022-12-22T05:17:16.923Z,2.34
2022-12-22T05:18:18.531Z,2.28
2022-12-22T05:19:20.517Z,2.31
2022-12-22T05:20:22.182Z,2.31
2022-12-22T05:21:23.853Z,2.33
2022-12-22T05:22:25.474Z,2.38
2022-12-22T05:23:27.103Z,2.40
2022-12-22T05:24:28.709Z,2.42
2022-12-22T05:25:35.063Z,2.42
2022-12-22T05:26:37.282Z,2.41
2022-12-22T05:27:38.911Z,2.40
2022-12-22T05:28:43.714Z,2.37
2022-12-22T05:29:45.332Z,2.34
2022-12-22T05:30:47.027Z,2.34
2022-12-22T05:31:48.692Z,2.30
2022-12-22T05:32:50.294Z,2.30
2022-12-22T05:33:52.007Z,2.30
2022-12-22T05:34:53.607Z,2.34
2022-12-22T05:35:55.274Z,2.34
2022-12-22T05:36:56.881Z,2.30
2022-12-22T05:37:58.684Z,2.27
2022-12-22T05:39:00.271Z,2.24
2022-12-22T05:40:01.853Z,2.31
2022-12-22T05:41:04.564Z,2.27
2022-12-22T05:42:06.770Z,2.26
2022-12-22T05:43:09.868Z,2.26
2022-12-22T05:44:11.530Z,2.21
2022-12-22T05:45:17.914Z,2.17
2022-12-22T05:46:19.592Z,2.13
2022-12-22T05:47:21.292Z,2.07
2022-12-22T05:48:29.539Z,2.02
2022-12-22T05:49:33.850Z,2.02
2022-12-22T05:50:35.471Z,1.95
2022-12-22T05:51:37.165Z,1.92
2022-12-22T05:52:38.887Z,1.87
2022-12-22T05:53:40.731Z,1.89
2022-12-22T05:54:42.312Z,1.93
2022-12-22T05:55:43.901Z,1.96
2022-12-22T05:56:45.702Z,1.97
2022-12-22T05:57:47.320Z,2.02
2022-12-22T05:58:48.967Z,2.05
2022-12-22T05:59:50.659Z,2.07
2022-12-22T06:00:52.291Z,2.09
2022-12-22T06:01:53.968Z,1.99
2022-12-22T06:02:55.747Z,2.06
2022-12-22T06:04:00.407Z,2.06
2022-12-22T06:05:02.541Z,2.07
2022-12-22T06:06:04.414Z,2.00
2022-12-22T06:07:06.036Z,1.95
2022-12-22T06:08:07.653Z,1.90
2022-12-22T06:09:09.244Z,1.86
2022-12-22T06:10:12.843Z,1.80
2022-12-22T06:11:18.347Z,1.79
2022-12-22T06:12:20.028Z,1.80
2022-12-22T06:13:21.717Z,1.73
2022-12-22T06:14:23.322Z,1.76
2022-12-22T06:15:24.913Z,1.75
2022-12-22T06:16:26.693Z,1.79
2022-12-22T06:17:28.362Z,1.79
2022-12-22T06:18:29.977Z,1.73
2022-12-22T06:19:31.684Z,1.67
2022-12-22T06:20:33.270Z,1.66
2022-12-22T06:21:34.846Z,1.62
2022-12-22T06:22:36.497Z,1.56
2022-12-22T06:23:38.096Z,1.54
2022-12-22T06:24:39.785Z,1.48
2022-12-22T06:25:41.400Z,1.46
2022-12-22T06:26:42.991Z,1.46
2022-12-22T06:27:44.581Z,1.48
2022-12-22T06:28:46.184Z,1.48
2022-12-22T06:29:47.883Z,1.58
2022-12-22T06:30:49.574Z,1.62
2022-12-22T06:31:51.244Z,1.65
2022-12-22T06:32:52.833Z,1.70
2022-12-22T06:33:54.416Z,1.75
2022-12-22T06:34:56.069Z,1.75
2022-12-22T06:35:59.307Z,1.79
2022-12-22T06:37:01.155Z,1.80
2022-12-22T06:38:02.768Z,1.82
2022-12-22T06:39:05.388Z,1.86
2022-12-22T06:40:07.918Z,1.87
2022-12-22T06:41:09.523Z,1.92
2022-12-22T06:42:31.585Z,1.87
2022-12-22T06:43:33.204Z,1.96
2022-12-22T06:44:34.801Z,1.95
2022-12-22T06:45:37.553Z,2.06
2022-12-22T06:46:39.324Z,2.02
2022-12-22T06:47:41.083Z,2.00
2022-12-22T06:48:42.686Z,2.02
2022-12-22T06:49:44.275Z,2.07
2022-12-22T06:50:45.876Z,2.16
2022-12-22T06:51:47.559Z,2.18
2022-12-22T06:52:49.213Z,2.10
2022-12-22T06:53:50.895Z,2.23
2022-12-22T06:54:52.479Z,2.28
2022-12-22T06:55:54.108Z,2.34
2022-12-22T06:56:55.697Z,2.30
2022-12-22T06:57:57.304Z,2.34
2022-12-22T06:58:59.012Z,2.33
2022-12-22T07:00:00.619Z,2.33
2022-12-22T07:01:02.219Z,2.28
2022-12-22T07:02:04.035Z,2.30
2022-12-22T07:03:06.021Z,2.33
2022-12-22T07:04:07.893Z,2.36
2022-12-22T07:05:09.666Z,2.42
2022-12-22T07:06:11.800Z,2.50
2022-12-22T07:07:13.372Z,2.47
2022-12-22T07:08:15.024Z,2.47
2022-12-22T07:09:16.683Z,2.41
2022-12-22T07:10:18.375Z,2.41
2022-12-22T07:11:19.993Z,2.42
2022-12-22T07:12:22.592Z,2.34
2022-12-22T07:13:34.284Z,2.40
2022-12-22T07:14:35.980Z,2.38
2022-12-22T07:15:37.569Z,2.34
2022-12-22T07:16:39.248Z,2.31
2022-12-22T07:17:41.868Z,2.36
2022-12-22T07:18:43.590Z,2.34
2022-12-22T07:19:45.221Z,2.31
2022-12-22T07:20:46.833Z,2.23
2022-12-22T07:21:49.062Z,2.28
2022-12-22T07:22:50.823Z,2.27
2022-12-22T07:23:52.408Z,2.18
2022-12-22T07:24:54.859Z,2.23
2022-12-22T07:25:56.548Z,2.10
2022-12-22T07:26:58.180Z,2.17
2022-12-22T07:27:59.981Z,2.27
2022-12-22T07:29:01.585Z,2.33
2022-12-22T07:30:03.271Z,2.38
2022-12-22T07:31:05.264Z,2.41
2022-12-22T07:32:06.942Z,2.40
2022-12-22T07:33:08.646Z,2.34
2022-12-22T07:34:10.227Z,2.31
2022-12-22T07:35:11.883Z,2.31
2022-12-22T07:36:16.274Z,2.30
2022-12-22T07:37:17.879Z,2.34
2022-12-22T07:38:19.550Z,2.34
2022-12-22T07:39:21.190Z,2.30
2022-12-22T07:40:22.783Z,2.31
2022-12-22T07:41:42.964Z,2.34
2022-12-22T07:42:44.784Z,2.45
2022-12-22T07:43:46.431Z,2.42
2022-12-22T07:44:48.036Z,2.54
2022-12-22T07:45:49.674Z,2.58
2022-12-22T07:46:51.306Z,2.65
2022-12-22T07:47:53.144Z,2.59
2022-12-22T07:49:13.317Z,2.66
2022-12-22T07:50:25.984Z,2.72
2022-12-22T07:51:27.676Z,2.68
2022-12-22T07:52:29.374Z,2.71
2022-12-22T07:53:31.328Z,2.78
2022-12-22T07:54:39.647Z,2.78
2022-12-22T07:55:43.159Z,2.81
2022-12-22T07:56:45.283Z,2.82
2022-12-22T07:57:46.905Z,2.84
2022-12-22T07:58:48.608Z,2.81
2022-12-22T07:59:50.308Z,2.84
2022-12-22T08:00:51.969Z,2.82
2022-12-22T08:01:53.784Z,2.82
2022-12-22T08:02:56.788Z,2.74
2022-12-22T08:03:58.580Z,2.68
2022-12-22T08:05:00.292Z,2.65
2022-12-22T08:06:04.872Z,2.62
2022-12-22T08:07:06.527Z,2.62
2022-12-22T08:08:08.199Z,2.66
2022-12-22T08:09:10.040Z,2.66
2022-12-22T08:10:12.127Z,2.69
2022-12-22T08:11:13.815Z,2.72
2022-12-22T08:12:15.474Z,2.69
2022-12-22T08:13:17.184Z,2.71
2022-12-22T08:14:18.831Z,2.72
2022-12-22T08:15:20.451Z,2.72
2022-12-22T08:16:22.470Z,2.69
2022-12-22T08:17:24.114Z,2.65
2022-12-22T08:18:25.713Z,2.62
2022-12-22T08:19:27.304Z,2.59
2022-12-22T08:20:28.939Z,2.52
2022-12-22T08:21:30.653Z,2.52
2022-12-22T08:22:32.851Z,2.45
2022-12-22T08:23:34.484Z,2.41
2022-12-22T08:24:36.128Z,2.40
2022-12-22T08:25:37.843Z,2.34
2022-12-22T08:26:42.125Z,2.33
2022-12-22T08:27:47.470Z,2.27
2022-12-22T08:28:55.101Z,2.21
2022-12-22T08:29:58.687Z,2.20
2022-12-22T08:31:00.858Z,2.16
2022-12-22T08:32:02.725Z,2.17
2022-12-22T08:33:04.563Z,2.16
2022-12-22T08:34:06.999Z,2.17
2022-12-22T08:35:09.040Z,2.13
2022-12-22T08:36:10.791Z,2.10
2022-12-22T08:37:14.677Z,2.11
2022-12-22T08:38:16.289Z,2.11
2022-12-22T08:39:18.238Z,2.11
2022-12-22T08:40:22.991Z,2.09
2022-12-22T08:41:43.198Z,2.09
2022-12-22T08:42:45.286Z,2.09
2022-12-22T08:43:46.871Z,2.07
2022-12-22T08:44:53.332Z,2.07
2022-12-22T08:45:55.131Z,2.09
2022-12-22T08:46:57.688Z,2.09
2022-12-22T08:47:59.415Z,2.09
2022-12-22T08:49:01.021Z,2.11
2022-12-22T08:50:03.051Z,2.10
2022-12-22T08:51:04.942Z,2.16
2022-12-22T08:52:06.638Z,2.16
2022-12-22T08:53:18.822Z,2.18
2022-12-22T08:54:30.114Z,2.21
2022-12-22T08:55:31.800Z,2.23
2022-12-22T08:56:33.477Z,2.26
2022-12-22T08:57:35.249Z,2.24
2022-12-22T08:58:37.056Z,2.23
2022-12-22T08:59:38.644Z,2.27
2022-12-22T09:00:40.413Z,2.31
2022-12-22T09:01:44.523Z,2.34
2022-12-22T09:02:46.628Z,2.36
2022-12-22T09:03:52.281Z,2.42
2022-12-22T09:04:53.884Z,2.40
2022-12-22T09:06:01.304Z,2.42
2022-12-22T09:07:02.939Z,2.41
2022-12-22T09:08:05.452Z,2.37
2022-12-22T09:09:07.826Z,2.40
2022-12-22T09:10:10.077Z,2.36
2022-12-22T09:11:11.727Z,2.42
2022-12-22T09:12:13.331Z,2.45
2022-12-22T09:13:15.081Z,2.51
2022-12-22T09:14:16.883Z,2.54
2022-12-22T09:15:19.034Z,2.54
2022-12-22T09:16:21.080Z,2.52
2022-12-22T09:17:22.722Z,2.50
2022-12-22T09:18:24.362Z,2.51
2022-12-22T09:19:26.054Z,2.50
2022-12-22T09:20:27.732Z,2.50
2022-12-22T09:21:30.269Z,2.48
2022-12-22T09:22:32.088Z,2.47
2022-12-22T09:23:33.722Z,2.47
2022-12-22T09:24:35.387Z,2.47
2022-12-22T09:25:37.054Z,2.45
2022-12-22T09:26:38.658Z,2.40
2022-12-22T09:27:41.552Z,2.42
2022-12-22T09:28:48.262Z,2.41
2022-12-22T09:29:51.945Z,2.41
2022-12-22T09:30:53.701Z,2.41
2022-12-22T09:31:55.373Z,2.38
2022-12-22T09:32:57.006Z,2.37
2022-12-22T09:33:58.749Z,2.38
2022-12-22T09:35:00.426Z,2.36
2022-12-22T09:36:06.633Z,2.37
2022-12-22T09:37:08.342Z,2.37
2022-12-22T09:38:10.052Z,2.36
2022-12-22T09:39:11.665Z,2.36
2022-12-22T09:40:13.603Z,2.37
2022-12-22T09:41:24.196Z,2.34
2022-12-22T09:42:26.108Z,2.33
2022-12-22T09:43:29.188Z,2.36
2022-12-22T09:44:38.365Z,2.36
2022-12-22T09:45:40.040Z,2.36
2022-12-22T09:46:41.859Z,2.34
2022-12-22T09:47:45.442Z,2.34
2022-12-22T09:48:47.139Z,2.34
2022-12-22T09:49:48.952Z,2.34
2022-12-22T09:50:50.575Z,2.34
2022-12-22T09:52:00.153Z,2.36
2022-12-22T09:53:03.281Z,2.37
2022-12-22T09:54:04.943Z,2.36
2022-12-22T09:55:13.920Z,2.36
2022-12-22T09:56:16.581Z,2.31
2022-12-22T09:57:18.207Z,2.34
2022-12-22T09:58:32.586Z,2.34
2022-12-22T09:59:34.192Z,2.37
2022-12-22T10:00:35.865Z,2.37
2022-12-22T10:01:37.535Z,2.42
2022-12-22T10:02:57.662Z,2.47
2022-12-22T10:04:17.340Z,2.51
2022-12-22T10:05:39.659Z,2.55
2022-12-22T10:06:43.992Z,2.58
2022-12-22T10:07:45.635Z,2.58
2022-12-22T10:08:47.329Z,2.68
2022-12-22T10:09:51.133Z,2.74
2022-12-22T10:10:53.913Z,2.77
2022-12-22T10:11:57.351Z,2.81
2022-12-22T10:13:00.531Z,2.81
2022-12-22T10:14:02.142Z,2.82
2022-12-22T10:15:04.164Z,2.85
2022-12-22T10:16:23.437Z,2.88
2022-12-22T10:17:32.730Z,2.91
2022-12-22T10:18:35.574Z,2.93
2022-12-22T10:19:37.234Z,2.98
2022-12-22T10:20:39.920Z,2.96
2022-12-22T10:21:46.589Z,2.99
2022-12-22T10:22:52.531Z,2.98
2022-12-22T10:23:54.223Z,3.01
2022-12-22T10:24:56.015Z,3.01
2022-12-22T10:26:27.570Z,2.98
2022-12-22T10:27:23.082Z,3.05
2022-12-22T10:28:29.503Z,3.05
2022-12-22T10:29:31.897Z,3.03
2022-12-22T10:30:36.037Z,3.05
2022-12-22T10:31:41.002Z,3.06
2022-12-22T10:32:42.745Z,3.03
2022-12-22T10:33:47.564Z,3.03
2022-12-22T10:35:03.782Z,3.02
2022-12-22T10:36:05.726Z,3.02
2022-12-22T10:37:07.346Z,2.96
2022-12-22T10:38:38.788Z,2.98
2022-12-22T10:39:40.770Z,3.02
2022-12-22T10:40:43.979Z,3.02
2022-12-22T10:41:47.787Z,3.06
2022-12-22T10:42:53.957Z,3.08
2022-12-22T10:43:57.265Z,3.06
2022-12-22T10:44:59.121Z,3.05
2022-12-22T10:46:00.860Z,3.09
2022-12-22T10:47:17.154Z,3.11
2022-12-22T10:48:26.199Z,3.08
2022-12-22T10:50:35.314Z,3.13
2022-12-22T10:51:36.888Z,3.15
2022-12-22T10:52:38.548Z,3.19
2022-12-22T10:53:56.372Z,3.22
2022-12-22T10:55:17.070Z,3.26
2022-12-22T10:56:22.006Z,3.27
2022-12-22T10:57:29.317Z,3.30
2022-12-22T10:58:30.892Z,3.34
2022-12-22T10:59:33.325Z,3.34
2022-12-22T11:00:34.909Z,3.34
2022-12-22T11:01:37.029Z,3.37
2022-12-22T11:02:39.364Z,3.36
2022-12-22T11:03:41.320Z,3.37
2022-12-22T11:04:42.961Z,3.37
2022-12-22T11:05:44.556Z,3.37
2022-12-22T11:06:46.236Z,3.36
2022-12-22T11:07:48.026Z,3.40
2022-12-22T11:08:51.840Z,3.43
2022-12-22T11:09:53.717Z,3.44
2022-12-22T11:11:04.609Z,3.46
2022-12-22T11:12:23.489Z,3.46
2022-12-22T11:14:13.214Z,3.43
2022-12-22T11:15:26.791Z,3.40
2022-12-22T11:17:06.517Z,3.39
2022-12-22T11:18:22.244Z,3.37
2022-12-22T11:19:48.516Z,3.42
2022-12-22T11:21:24.272Z,3.47
2022-12-22T11:22:26.280Z,3.46
2022-12-22T11:23:58.805Z,3.50
2022-12-22T11:25:57.029Z,3.53
2022-12-22T11:27:25.127Z,3.57
2022-12-22T11:28:35.742Z,3.60
2022-12-22T11:30:12.668Z,3.64
2022-12-22T11:31:25.968Z,3.66
2022-12-22T11:32:37.952Z,3.64
2022-12-22T11:33:57.905Z,3.66
2022-12-22T11:35:18.296Z,3.64
2022-12-22T11:36:46.019Z,3.60
2022-12-22T11:37:59.481Z,3.54
2022-12-22T11:39:07.406Z,3.50
2022-12-22T11:40:45.709Z,3.49
2022-12-22T11:42:30.125Z,3.53
2022-12-22T11:44:12.774Z,3.52
2022-12-22T11:45:43.155Z,3.52
2022-12-22T11:47:00.189Z,3.47
2022-12-22T11:48:06.740Z,3.49
2022-12-22T11:49:33.375Z,3.50
2022-12-22T11:50:59.389Z,3.52
2022-12-22T11:52:35.053Z,3.50
2022-12-22T11:54:10.565Z,3.49
2022-12-22T11:55:40.646Z,3.49
2022-12-22T11:56:47.377Z,3.47
2022-12-22T11:57:49.022Z,3.47
2022-12-22T11:59:15.172Z,3.47
2022-12-22T12:00:17.429Z,3.50
2022-12-22T12:01:39.850Z,3.53
2022-12-22T12:03:18.853Z,3.59
2022-12-22T12:04:37.330Z,3.60
2022-12-22T12:05:44.658Z,3.64
2022-12-22T12:06:52.264Z,3.67
2022-12-22T12:08:24.575Z,3.74
2022-12-22T12:09:48.155Z,3.80
2022-12-22T12:11:20.725Z,3.77
2022-12-22T12:12:40.777Z,3.78
2022-12-22T12:13:52.897Z,3.74
2022-12-22T12:15:25.545Z,3.73
2022-12-22T12:16:39.839Z,3.73
2022-12-22T12:18:09.374Z,3.73
2022-12-22T12:19:26.764Z,3.75
2022-12-22T12:20:50.418Z,3.73
2022-12-22T12:21:56.599Z,3.71
2022-12-22T12:23:04.006Z,3.71
2022-12-22T12:24:08.710Z,3.74
2022-12-22T12:25:26.137Z,3.71
2022-12-22T12:26:31.397Z,3.77
2022-12-22T12:27:51.498Z,3.80
2022-12-22T12:29:20.384Z,3.83
2022-12-22T12:30:37.894Z,3.84
2022-12-22T12:31:46.669Z,3.85
2022-12-22T12:32:48.294Z,3.88
2022-12-22T12:33:52.528Z,3.94
2022-12-22T12:35:22.566Z,3.95
2022-12-22T12:36:36.417Z,4.01
2022-12-22T12:37:38.903Z,4.06
2022-12-22T12:39:10.159Z,4.12
2022-12-22T12:40:27.248Z,4.04
2022-12-22T12:41:57.558Z,3.99
2022-12-22T12:42:59.326Z,3.99
2022-12-22T12:44:01.055Z,3.97
2022-12-22T12:45:02.715Z,4.04
2022-12-22T12:46:43.259Z,4.09
2022-12-22T12:47:46.353Z,4.06
2022-12-22T12:48:48.491Z,4.05
2022-12-22T12:50:18.273Z,4.04
2022-12-22T12:51:45.267Z,4.05
2022-12-22T12:52:48.855Z,4.09
2022-12-22T12:54:22.710Z,4.14
2022-12-22T12:55:32.763Z,4.14
2022-12-22T12:57:07.230Z,4.22
2022-12-22T12:58:12.754Z,4.19
2022-12-22T12:59:41.961Z,4.26
2022-12-22T13:00:49.788Z,4.29
2022-12-22T13:01:56.274Z,4.32
2022-12-22T13:03:01.650Z,4.34
2022-12-22T13:04:04.949Z,4.28
2022-12-22T13:05:12.941Z,4.19
2022-12-22T13:06:59.495Z,4.21
2022-12-22T13:08:14.457Z,4.12
2022-12-22T13:10:48.622Z,4.06
2022-12-22T13:12:11.898Z,4.06
2022-12-22T13:13:33.611Z,4.08
2022-12-22T13:14:57.985Z,4.01
2022-12-22T13:15:59.721Z,4.01
2022-12-22T13:17:53.124Z,4.01
2022-12-22T13:18:58.615Z,4.02
2022-12-22T13:20:00.265Z,3.97
2022-12-22T13:22:50.985Z,4.08
2022-12-22T13:24:23.003Z,4.12
2022-12-22T13:25:17.269Z,4.16
2022-12-22T13:26:21.097Z,4.21
2022-12-22T13:27:22.774Z,4.24
2022-12-22T13:28:24.471Z,4.24
2022-12-22T13:29:49.506Z,4.15
2022-12-22T13:31:02.977Z,4.08
2022-12-22T13:32:19.767Z,4.02
2022-12-22T13:33:21.687Z,3.97
2022-12-22T13:34:42.210Z,3.91
2022-12-22T13:35:59.330Z,3.85
2022-12-22T13:37:04.802Z,3.87
2022-12-22T13:38:06.803Z,3.85
2022-12-22T13:39:13.156Z,3.83
2022-12-22T13:40:24.727Z,3.80
2022-12-22T13:41:27.743Z,3.78
2022-12-22T13:42:29.706Z,3.77
2022-12-22T13:43:32.330Z,3.74
2022-12-22T13:44:34.053Z,3.67
2022-12-22T13:45:42.113Z,3.67
2022-12-22T13:46:43.903Z,3.64
2022-12-22T13:47:46.221Z,3.62
2022-12-22T13:48:49.338Z,3.59
2022-12-22T13:50:08.323Z,3.56
2022-12-22T13:51:24.696Z,3.49
2022-12-22T13:52:26.265Z,3.47
2022-12-22T13:54:59.255Z,3.44
2022-12-22T13:56:00.936Z,3.42
2022-12-22T13:57:03.544Z,3.40
2022-12-22T13:58:28.807Z,3.36
2022-12-22T13:59:36.766Z,3.37
2022-12-22T14:00:38.483Z,3.36
2022-12-22T14:01:49.367Z,3.36
2022-12-22T14:02:51.386Z,3.39
2022-12-22T14:04:01.032Z,3.33
2022-12-22T14:05:08.128Z,3.30
2022-12-22T14:06:32.867Z,3.33
2022-12-22T14:07:34.487Z,3.32
2022-12-22T14:08:36.138Z,3.26
2022-12-22T14:09:37.842Z,3.24
2022-12-22T14:10:43.517Z,3.29
2022-12-22T14:12:01.453Z,3.24
2022-12-22T14:13:06.596Z,3.22
2022-12-22T14:14:15.346Z,3.23
2022-12-22T14:15:18.481Z,3.24
2022-12-22T14:16:20.133Z,3.23
2022-12-22T14:17:34.998Z,3.26
2022-12-22T14:18:37.334Z,3.32
2022-12-22T14:19:39.023Z,3.34
2022-12-22T14:20:40.741Z,3.33
2022-12-22T14:21:46.646Z,3.32
2022-12-22T14:22:55.090Z,3.27
2022-12-22T14:23:56.745Z,3.27
2022-12-22T14:25:21.427Z,3.23
2022-12-22T14:26:24.513Z,3.24
2022-12-22T14:27:35.965Z,3.24
2022-12-22T14:28:50.408Z,3.23
2022-12-22T14:29:52.108Z,3.24
2022-12-22T14:30:54.945Z,3.26
2022-12-22T14:32:01.936Z,3.29
2022-12-22T14:33:26.893Z,3.30
2022-12-22T14:34:33.117Z,3.32
2022-12-22T14:35:34.714Z,3.32
2022-12-22T14:36:44.269Z,3.33
2022-12-22T14:37:52.628Z,3.42
2022-12-22T14:39:01.196Z,3.42
2022-12-22T14:40:27.838Z,3.46
2022-12-22T14:41:42.057Z,3.43
2022-12-22T14:42:44.181Z,3.52
2022-12-22T14:43:45.768Z,3.54
2022-12-22T14:44:47.493Z,3.56
2022-12-22T14:45:50.075Z,3.56
2022-12-22T14:47:11.953Z,3.63
2022-12-22T14:48:22.746Z,3.69
2022-12-22T14:49:24.351Z,3.67
2022-12-22T14:50:27.188Z,3.62
2022-12-22T14:51:28.820Z,3.70
2022-12-22T14:52:51.261Z,3.69
2022-12-22T14:53:53.657Z,3.62
2022-12-22T14:54:55.283Z,3.56
2022-12-22T14:55:56.954Z,3.52
2022-12-22T14:57:15.571Z,3.44
2022-12-22T14:58:17.872Z,3.39
2022-12-22T14:59:27.205Z,3.39
2022-12-22T15:00:31.825Z,3.46
2022-12-22T15:01:33.530Z,3.54
2022-12-22T15:02:40.016Z,3.54
2022-12-22T15:03:42.519Z,3.57
2022-12-22T15:04:44.186Z,3.47
2022-12-22T15:05:45.842Z,3.56
2022-12-22T15:06:48.099Z,3.59
2022-12-22T15:08:08.890Z,3.56
2022-12-22T15:09:14.271Z,3.50
2022-12-22T15:10:16.875Z,3.47
2022-12-22T15:11:19.784Z,3.42
2022-12-22T15:12:21.544Z,3.36
2022-12-22T15:13:23.571Z,3.32
2022-12-22T15:14:26.515Z,3.26
2022-12-22T15:15:28.239Z,3.22
2022-12-22T15:16:29.864Z,3.19
2022-12-22T15:17:31.526Z,3.15
2022-12-22T15:18:33.228Z,3.09
2022-12-22T15:19:35.424Z,3.08
2022-12-22T15:20:39.599Z,3.06
2022-12-22T15:21:41.494Z,3.05
2022-12-22T15:22:43.288Z,3.05
2022-12-22T15:23:44.909Z,3.01
2022-12-22T15:24:47.913Z,2.98
2022-12-22T15:25:49.624Z,2.98
2022-12-22T15:26:51.233Z,2.95
2022-12-22T15:27:52.927Z,2.92
2022-12-22T15:28:55.010Z,2.91
2022-12-22T15:29:56.629Z,2.89
2022-12-22T15:31:01.274Z,2.88